Aeroporto :
LOGIN :

Iscrizione | Disclaimer

   EN    FR    IT 

 










Sommario :    VFR   VFR Marginale   IFR   IFR Intensivo   IFR Molto Intensivo
Visibilità : 
Base nubi : 
>= 8 km
>= 3000ft
5 / 8 km
1000 / 3000 ft
1500m / 5 km
500 / 1000 ft
800 / 1500m
200 / 500 ft
< 800m
< 200 ft
Simboli :   Temporali  Nebbia  Neve Forte  Precipitazioni Forti  Vento > 20 kt
SIGMETs :   Varie  Temporali  Ghiacco  Turbolenza  Onda orograficha  Ceneri Vulcaniche






- Altitudine del aeroporto : 184 ft
- Codice IATA : NLV


UKON - Mykolaiv

ULTIMO METAR :
  • 290430Z 10005MPS 9999 FEW///CB 16/14 Q1013 R04/090075 NOSIG

METARs OBSOLETI :
  • 290400Z 11004MPS 9999 FEW///CB 16/14 Q1014 R04/090075 NOSIG
  • 290330Z 11005MPS 9999 FEW///CB 16/14 Q1014 R04/090075 NOSIG
  • 290300Z 11004MPS 9999 FEW///CB 16/13 Q1014 R04/090075 NOSIG
  • 290230Z 11005MPS CAVOK 15/13 Q1014 NOSIG
  • 290200Z 11005MPS CAVOK 15/13 Q1014 NOSIG

TAF TAF UKON
Valido dal 29 a 03 ore il 29 a 12 ore UTC


290202Z 2903/2912 12006G12MPS 9999 BKN020CB
TEMPO 2903/2906 2100 BR SCT004 BKN007
PROB40
TEMPO 2903/2912 1000 -TSRA BR BKN003 BKN015CB



MetMap, La meteo Aeronautica in un colpo d'occhio ! - Copyright ORBIFLY Dicembre 2007 - Disclaimer

ORBIFLY MET'MAP TEAM :

Programmazione e sviluppo : Alexandra Zaïnal
Concezione : Baudouin d'Aumeries
Aiuto per la programmazione : Marc-Olivier Méhu
Supporto tecnico e logistico : Manuel Goepfert
Aiuto per la traduzione : Arnaldo La Scala

Contatto : metmap@orbifly.com




FONTI E CREDITI :

   NOAA